Helmsley, United Kingdom
Current Conditions -  °F | °C
As of 12:50 PM on Wednesday 22 Oct 2014 (Local Time) from EGXZ Reporting Station
Moderate Rain Moderate Rain  
Wind Chill: 54°   Ceiling: 5000
Heat Index: 54°   Visibility: 6mi
Dew Point: 46°   Wind: 10mph
Humidity: 77%   Direction: 260°W
Pressure: 30.15"   Gusts: NA
Location:  54.25°N, 1.06°W
Report Text: EGXZ 221150Z 26009KT 9999 RA BKN050 12/08 Q1021 BLU
Loading
Personal Weather Stations






























Interactive Weather Map
Tropical Storm Tracking
New forecast layout! Learn more

10-Day Weather Forecast

Advertisements
Track Severe Weather on mobile